createdAt,value
2023-03-27T00:13:50.138Z,99.99
2023-03-27T00:28:50.504Z,99.99
2023-03-27T00:43:50.623Z,99.99
2023-03-27T00:58:50.746Z,98.72
2023-03-27T01:13:50.833Z,96.85
2023-03-27T01:28:51.057Z,97.43
2023-03-27T01:43:51.456Z,97.16
2023-03-27T01:58:52.098Z,99.99
2023-03-27T02:13:51.739Z,99.99
2023-03-27T02:28:52.302Z,99.38
2023-03-27T02:43:52.442Z,95.46
2023-03-27T02:58:52.590Z,90.77
2023-03-27T03:13:52.207Z,90.50
2023-03-27T03:29:00.947Z,87.59
2023-03-27T03:43:57.451Z,86.96
2023-03-27T03:58:57.538Z,84.32
2023-03-27T04:13:57.647Z,79.54
2023-03-27T04:28:57.742Z,79.27
2023-03-27T04:43:58.290Z,75.74
2023-03-27T04:58:58.466Z,78.57
2023-03-27T05:13:58.580Z,78.85
2023-03-27T05:28:58.689Z,71.51
2023-03-27T05:43:58.788Z,71.31
2023-03-27T05:58:59.298Z,99.99
2023-03-27T06:13:58.988Z,99.99
2023-03-27T06:28:59.559Z,99.99
2023-03-27T06:43:59.570Z,99.99
2023-03-27T06:58:59.233Z,93.87
2023-03-27T07:13:59.370Z,87.15
2023-03-27T07:29:00.602Z,78.92
2023-03-27T07:44:00.504Z,81.85
2023-03-27T07:59:00.578Z,78.30
2023-03-27T08:14:00.680Z,75.76
2023-03-27T08:29:00.750Z,73.98
2023-03-27T08:44:00.865Z,71.89
2023-03-27T08:59:01.011Z,75.42
2023-03-27T09:14:01.069Z,66.86
2023-03-27T09:29:01.126Z,63.31
2023-03-27T09:44:01.640Z,62.18
2023-03-27T09:59:01.289Z,62.08
2023-03-27T10:14:01.410Z,62.14
2023-03-27T10:29:01.561Z,56.97
2023-03-27T10:44:01.997Z,55.21
2023-03-27T10:59:01.653Z,55.69
2023-03-27T11:14:01.754Z,57.33
2023-03-27T11:29:02.299Z,58.78
2023-03-27T11:44:01.944Z,54.95
2023-03-27T11:59:02.401Z,51.79
2023-03-27T12:14:03.414Z,49.29
2023-03-27T12:29:22.700Z,50.50
2023-03-27T12:44:10.243Z,57.66
2023-03-27T12:59:10.325Z,63.20
2023-03-27T13:14:10.833Z,64.63
2023-03-27T13:29:10.528Z,69.35
2023-03-27T13:44:11.106Z,67.49
2023-03-27T13:59:11.572Z,59.12
2023-03-27T14:14:11.241Z,48.59
2023-03-27T14:29:11.764Z,46.41
2023-03-27T14:44:11.384Z,47.35
2023-03-27T14:59:11.892Z,45.61
2023-03-27T15:14:11.590Z,49.78
2023-03-27T15:29:11.681Z,54.92
2023-03-27T15:44:12.243Z,59.77
2023-03-27T15:59:12.816Z,75.43
2023-03-27T16:14:13.318Z,75.26
2023-03-27T16:29:13.022Z,73.81
2023-03-27T16:44:13.081Z,76.67
2023-03-27T16:59:13.599Z,79.47
2023-03-27T17:14:13.276Z,83.68
2023-03-27T17:29:13.823Z,87.80
2023-03-27T17:44:13.476Z,90.20
2023-03-27T17:59:13.538Z,93.10
2023-03-27T18:14:14.138Z,95.11
2023-03-27T18:29:13.790Z,92.93
2023-03-27T18:44:13.880Z,97.50
2023-03-27T18:59:13.951Z,98.85
2023-03-27T19:14:14.098Z,99.99
2023-03-27T19:29:14.224Z,99.99
2023-03-27T19:44:14.307Z,99.99
2023-03-27T19:59:20.830Z,99.99
2023-03-27T20:14:19.574Z,99.99
2023-03-27T20:29:19.577Z,99.82
2023-03-27T20:44:19.723Z,99.82
2023-03-27T20:59:20.205Z,99.99
2023-03-27T21:14:19.931Z,97.33
2023-03-27T21:29:20.081Z,91.06
2023-03-27T21:44:20.131Z,88.81
2023-03-27T21:59:20.234Z,85.20
2023-03-27T22:14:20.374Z,84.12
2023-03-27T22:29:20.451Z,84.70
2023-03-27T22:44:20.600Z,91.68
2023-03-27T22:59:20.669Z,93.56
2023-03-27T23:14:20.775Z,99.66
2023-03-27T23:29:20.879Z,99.99
2023-03-27T23:44:20.989Z,84.40
2023-03-27T23:59:21.065Z,84.31
